sensor_id;sensor_type;location;lat;lon;timestamp;temperature;humidity
65568;DHT22;52211;50.154;8.682;2023-12-14T00:01:22;9.10;75.00
65568;DHT22;52211;50.154;8.682;2023-12-14T00:03:49;9.10;75.10
65568;DHT22;52211;50.154;8.682;2023-12-14T00:06:16;9.10;75.20
65568;DHT22;52211;50.154;8.682;2023-12-14T00:08:45;9.10;75.10
65568;DHT22;52211;50.154;8.682;2023-12-14T00:11:14;9.10;75.20
65568;DHT22;52211;50.154;8.682;2023-12-14T00:13:44;9.10;75.10
65568;DHT22;52211;50.154;8.682;2023-12-14T00:16:13;9.10;75.10
65568;DHT22;52211;50.154;8.682;2023-12-14T00:18:43;9.10;75.00
65568;DHT22;52211;50.154;8.682;2023-12-14T00:21:12;9.10;75.00
65568;DHT22;52211;50.154;8.682;2023-12-14T00:23:39;9.00;74.70
65568;DHT22;52211;50.154;8.682;2023-12-14T00:26:06;9.00;74.80
65568;DHT22;52211;50.154;8.682;2023-12-14T00:28:38;9.00;74.90
65568;DHT22;52211;50.154;8.682;2023-12-14T00:31:05;8.90;74.90
65568;DHT22;52211;50.154;8.682;2023-12-14T00:33:37;8.90;74.90
65568;DHT22;52211;50.154;8.682;2023-12-14T00:36:06;8.90;74.90
65568;DHT22;52211;50.154;8.682;2023-12-14T00:38:34;8.90;74.90
65568;DHT22;52211;50.154;8.682;2023-12-14T00:41:00;8.90;74.80
65568;DHT22;52211;50.154;8.682;2023-12-14T00:43:30;8.80;74.80
65568;DHT22;52211;50.154;8.682;2023-12-14T00:45:58;8.80;74.80
65568;DHT22;52211;50.154;8.682;2023-12-14T00:48:25;8.80;74.90
65568;DHT22;52211;50.154;8.682;2023-12-14T00:50:54;8.70;74.90
65568;DHT22;52211;50.154;8.682;2023-12-14T00:53:23;8.70;74.90
65568;DHT22;52211;50.154;8.682;2023-12-14T00:55:55;8.70;75.00
65568;DHT22;52211;50.154;8.682;2023-12-14T00:58:22;8.70;75.10
65568;DHT22;52211;50.154;8.682;2023-12-14T01:00:51;8.70;75.10
65568;DHT22;52211;50.154;8.682;2023-12-14T01:03:24;8.60;75.10
65568;DHT22;52211;50.154;8.682;2023-12-14T01:05:51;8.70;75.10
65568;DHT22;52211;50.154;8.682;2023-12-14T01:08:17;8.70;75.20
65568;DHT22;52211;50.154;8.682;2023-12-14T01:10:47;8.70;75.20
65568;DHT22;52211;50.154;8.682;2023-12-14T01:13:16;8.70;75.20
65568;DHT22;52211;50.154;8.682;2023-12-14T01:15:48;8.70;75.20
65568;DHT22;52211;50.154;8.682;2023-12-14T01:18:17;8.70;75.20
65568;DHT22;52211;50.154;8.682;2023-12-14T01:20:49;8.70;75.20
65568;DHT22;52211;50.154;8.682;2023-12-14T01:23:18;8.80;75.30
65568;DHT22;52211;50.154;8.682;2023-12-14T01:25:45;8.80;75.30
65568;DHT22;52211;50.154;8.682;2023-12-14T01:28:12;8.80;75.40
65568;DHT22;52211;50.154;8.682;2023-12-14T01:30:43;8.80;75.40
65568;DHT22;52211;50.154;8.682;2023-12-14T01:33:13;8.80;75.40
65568;DHT22;52211;50.154;8.682;2023-12-14T01:35:40;8.90;75.40
65568;DHT22;52211;50.154;8.682;2023-12-14T01:38:12;8.90;75.40
65568;DHT22;52211;50.154;8.682;2023-12-14T01:40:41;8.90;75.40
65568;DHT22;52211;50.154;8.682;2023-12-14T01:43:10;8.90;75.30
65568;DHT22;52211;50.154;8.682;2023-12-14T01:45:37;8.90;75.30
65568;DHT22;52211;50.154;8.682;2023-12-14T01:48:05;8.90;75.30
65568;DHT22;52211;50.154;8.682;2023-12-14T01:50:32;9.00;75.40
65568;DHT22;52211;50.154;8.682;2023-12-14T01:53:02;9.00;75.40
65568;DHT22;52211;50.154;8.682;2023-12-14T01:55:31;9.00;75.40
65568;DHT22;52211;50.154;8.682;2023-12-14T01:58:03;9.10;75.40
65568;DHT22;52211;50.154;8.682;2023-12-14T02:03:33;9.10;75.40
65568;DHT22;52211;50.154;8.682;2023-12-14T02:06:00;9.10;75.30
65568;DHT22;52211;50.154;8.682;2023-12-14T02:08:27;9.10;75.30
65568;DHT22;52211;50.154;8.682;2023-12-14T02:10:59;9.10;75.30
65568;DHT22;52211;50.154;8.682;2023-12-14T02:13:29;9.10;75.30
65568;DHT22;52211;50.154;8.682;2023-12-14T02:16:01;9.10;76.00
65568;DHT22;52211;50.154;8.682;2023-12-14T02:18:30;9.20;75.50
65568;DHT22;52211;50.154;8.682;2023-12-14T02:21:06;9.20;75.50
65568;DHT22;52211;50.154;8.682;2023-12-14T02:23:35;9.20;75.50
65568;DHT22;52211;50.154;8.682;2023-12-14T02:26:04;9.20;75.40
65568;DHT22;52211;50.154;8.682;2023-12-14T02:28:31;9.20;75.40
65568;DHT22;52211;50.154;8.682;2023-12-14T02:30:58;9.20;75.40
65568;DHT22;52211;50.154;8.682;2023-12-14T02:33:28;9.30;75.40
65568;DHT22;52211;50.154;8.682;2023-12-14T02:35:57;9.30;75.30
65568;DHT22;52211;50.154;8.682;2023-12-14T02:38:26;9.30;75.30
65568;DHT22;52211;50.154;8.682;2023-12-14T02:40:56;9.30;75.20
65568;DHT22;52211;50.154;8.682;2023-12-14T02:43:23;9.30;75.30
65568;DHT22;52211;50.154;8.682;2023-12-14T02:45:52;9.30;75.30
65568;DHT22;52211;50.154;8.682;2023-12-14T02:48:21;9.30;75.30
65568;DHT22;52211;50.154;8.682;2023-12-14T02:50:51;9.30;75.30
65568;DHT22;52211;50.154;8.682;2023-12-14T02:53:20;9.30;75.30
65568;DHT22;52211;50.154;8.682;2023-12-14T02:55:47;9.30;75.30
65568;DHT22;52211;50.154;8.682;2023-12-14T02:58:14;9.30;75.30
65568;DHT22;52211;50.154;8.682;2023-12-14T03:00:43;9.30;75.30
65568;DHT22;52211;50.154;8.682;2023-12-14T03:03:13;9.30;75.30
65568;DHT22;52211;50.154;8.682;2023-12-14T03:05:45;9.30;75.30
65568;DHT22;52211;50.154;8.682;2023-12-14T03:08:16;9.30;75.30
65568;DHT22;52211;50.154;8.682;2023-12-14T03:10:45;9.30;75.30
65568;DHT22;52211;50.154;8.682;2023-12-14T03:13:11;9.30;75.30
65568;DHT22;52211;50.154;8.682;2023-12-14T03:15:42;9.30;75.30
65568;DHT22;52211;50.154;8.682;2023-12-14T03:18:12;9.30;75.30
65568;DHT22;52211;50.154;8.682;2023-12-14T03:20:43;9.30;75.30
65568;DHT22;52211;50.154;8.682;2023-12-14T03:23:12;9.30;75.20
65568;DHT22;52211;50.154;8.682;2023-12-14T03:25:39;9.30;75.10
65568;DHT22;52211;50.154;8.682;2023-12-14T03:28:13;9.20;75.00
65568;DHT22;52211;50.154;8.682;2023-12-14T03:30:46;9.20;75.00
65568;DHT22;52211;50.154;8.682;2023-12-14T03:33:13;9.20;75.00
65568;DHT22;52211;50.154;8.682;2023-12-14T03:35:42;9.10;74.90
65568;DHT22;52211;50.154;8.682;2023-12-14T03:38:10;9.10;75.00
65568;DHT22;52211;50.154;8.682;2023-12-14T03:40:39;9.10;75.00
65568;DHT22;52211;50.154;8.682;2023-12-14T03:43:09;9.00;75.00
65568;DHT22;52211;50.154;8.682;2023-12-14T03:45:38;9.00;75.00
65568;DHT22;52211;50.154;8.682;2023-12-14T03:48:07;9.00;75.00
65568;DHT22;52211;50.154;8.682;2023-12-14T03:50:39;9.00;75.20
65568;DHT22;52211;50.154;8.682;2023-12-14T10:45:54;8.80;81.50
65568;DHT22;52211;50.154;8.682;2023-12-14T10:48:22;8.60;82.40
65568;DHT22;52211;50.154;8.682;2023-12-14T10:50:52;8.80;82.20
65568;DHT22;52211;50.154;8.682;2023-12-14T10:53:22;9.10;81.80
65568;DHT22;52211;50.154;8.682;2023-12-14T10:55:53;9.30;81.30
65568;DHT22;52211;50.154;8.682;2023-12-14T10:58:25;9.50;81.00
65568;DHT22;52211;50.154;8.682;2023-12-14T11:01:01;9.70;80.80
65568;DHT22;52211;50.154;8.682;2023-12-14T11:03:36;9.80;80.50
65568;DHT22;52211;50.154;8.682;2023-12-14T11:06:03;9.90;80.30
65568;DHT22;52211;50.154;8.682;2023-12-14T11:08:41;10.00;80.10
65568;DHT22;52211;50.154;8.682;2023-12-14T11:11:15;10.20;80.10
65568;DHT22;52211;50.154;8.682;2023-12-14T11:13:53;10.30;80.50
65568;DHT22;52211;50.154;8.682;2023-12-14T11:16:23;10.30;79.80
65568;DHT22;52211;50.154;8.682;2023-12-14T11:24:24;10.50;79.40
65568;DHT22;52211;50.154;8.682;2023-12-14T11:26:53;10.60;79.50
65568;DHT22;52211;50.154;8.682;2023-12-14T11:29:25;10.70;79.50
65568;DHT22;52211;50.154;8.682;2023-12-14T11:31:58;10.80;79.40
65568;DHT22;52211;50.154;8.682;2023-12-14T11:34:32;10.90;79.80
65568;DHT22;52211;50.154;8.682;2023-12-14T11:37:03;11.00;79.10
65568;DHT22;52211;50.154;8.682;2023-12-14T11:39:32;11.00;79.00
65568;DHT22;52211;50.154;8.682;2023-12-14T11:42:04;11.10;78.80
65568;DHT22;52211;50.154;8.682;2023-12-14T11:44:38;11.20;78.70
65568;DHT22;52211;50.154;8.682;2023-12-14T11:47:12;11.20;78.70
65568;DHT22;52211;50.154;8.682;2023-12-14T11:49:41;11.30;78.60
65568;DHT22;52211;50.154;8.682;2023-12-14T11:52:14;11.40;78.50
65568;DHT22;52211;50.154;8.682;2023-12-14T11:54:44;11.40;78.40
65568;DHT22;52211;50.154;8.682;2023-12-14T11:57:15;11.50;78.20
65568;DHT22;52211;50.154;8.682;2023-12-14T11:59:45;11.50;78.20
65568;DHT22;52211;50.154;8.682;2023-12-14T12:02:25;11.50;78.10
65568;DHT22;52211;50.154;8.682;2023-12-14T12:04:57;11.60;77.90
65568;DHT22;52211;50.154;8.682;2023-12-14T12:07:29;11.70;78.00
65568;DHT22;52211;50.154;8.682;2023-12-14T12:09:58;11.70;77.70
65568;DHT22;52211;50.154;8.682;2023-12-14T12:12:28;11.70;77.80
65568;DHT22;52211;50.154;8.682;2023-12-14T12:14:57;11.80;77.80
65568;DHT22;52211;50.154;8.682;2023-12-14T12:17:26;11.70;77.50
65568;DHT22;52211;50.154;8.682;2023-12-14T12:19:53;11.80;77.50
65568;DHT22;52211;50.154;8.682;2023-12-14T12:22:24;11.80;77.30
65568;DHT22;52211;50.154;8.682;2023-12-14T12:24:51;11.80;76.90
65568;DHT22;52211;50.154;8.682;2023-12-14T12:27:30;11.80;76.80
65568;DHT22;52211;50.154;8.682;2023-12-14T12:30:00;11.80;76.70
65568;DHT22;52211;50.154;8.682;2023-12-14T12:32:29;11.80;76.50
65568;DHT22;52211;50.154;8.682;2023-12-14T12:34:56;11.80;76.50
65568;DHT22;52211;50.154;8.682;2023-12-14T12:37:25;11.70;76.40
65568;DHT22;52211;50.154;8.682;2023-12-14T12:39:56;11.70;76.50
65568;DHT22;52211;50.154;8.682;2023-12-14T12:42:28;11.70;76.50
65568;DHT22;52211;50.154;8.682;2023-12-14T12:44:56;11.70;76.50
65568;DHT22;52211;50.154;8.682;2023-12-14T12:47:25;11.70;76.60
65568;DHT22;52211;50.154;8.682;2023-12-14T12:49:54;11.70;76.40
65568;DHT22;52211;50.154;8.682;2023-12-14T12:52:21;11.80;76.40
65568;DHT22;52211;50.154;8.682;2023-12-14T12:54:50;11.70;76.40
65568;DHT22;52211;50.154;8.682;2023-12-14T12:57:17;11.80;76.20
65568;DHT22;52211;50.154;8.682;2023-12-14T12:59:46;11.70;76.10
65568;DHT22;52211;50.154;8.682;2023-12-14T13:02:13;11.70;76.00
65568;DHT22;52211;50.154;8.682;2023-12-14T13:04:42;11.70;76.10
65568;DHT22;52211;50.154;8.682;2023-12-14T13:07:11;11.70;76.00
65568;DHT22;52211;50.154;8.682;2023-12-14T13:09:38;11.70;76.00
65568;DHT22;52211;50.154;8.682;2023-12-14T13:12:07;11.70;76.00
65568;DHT22;52211;50.154;8.682;2023-12-14T13:14:41;11.70;76.00
65568;DHT22;52211;50.154;8.682;2023-12-14T13:17:08;11.70;75.80
65568;DHT22;52211;50.154;8.682;2023-12-14T13:19:35;11.80;75.90
65568;DHT22;52211;50.154;8.682;2023-12-14T13:22:04;11.70;75.70
65568;DHT22;52211;50.154;8.682;2023-12-14T13:24:37;11.70;75.70
65568;DHT22;52211;50.154;8.682;2023-12-14T13:27:07;11.60;75.50
65568;DHT22;52211;50.154;8.682;2023-12-14T13:29:33;11.60;75.50
65568;DHT22;52211;50.154;8.682;2023-12-14T13:32:03;11.70;75.60
65568;DHT22;52211;50.154;8.682;2023-12-14T13:34:34;11.70;75.60
65568;DHT22;52211;50.154;8.682;2023-12-14T13:37:01;11.60;75.20
65568;DHT22;52211;50.154;8.682;2023-12-14T13:39:29;11.60;75.30
65568;DHT22;52211;50.154;8.682;2023-12-14T13:42:00;11.60;75.30
65568;DHT22;52211;50.154;8.682;2023-12-14T13:44:27;11.60;75.40
65568;DHT22;52211;50.154;8.682;2023-12-14T13:46:57;11.60;75.40
65568;DHT22;52211;50.154;8.682;2023-12-14T13:49:28;11.60;75.40
65568;DHT22;52211;50.154;8.682;2023-12-14T13:51:55;11.50;75.40
65568;DHT22;52211;50.154;8.682;2023-12-14T13:54:25;11.60;75.30
65568;DHT22;52211;50.154;8.682;2023-12-14T13:56:51;11.50;75.20
65568;DHT22;52211;50.154;8.682;2023-12-14T13:59:19;11.60;75.30
65568;DHT22;52211;50.154;8.682;2023-12-14T14:01:49;11.50;75.20
65568;DHT22;52211;50.154;8.682;2023-12-14T14:04:21;11.60;75.20
65568;DHT22;52211;50.154;8.682;2023-12-14T14:06:49;11.50;75.20
65568;DHT22;52211;50.154;8.682;2023-12-14T14:09:15;11.50;75.20
65568;DHT22;52211;50.154;8.682;2023-12-14T14:11:50;11.50;75.10
65568;DHT22;52211;50.154;8.682;2023-12-14T14:14:22;11.50;75.00
65568;DHT22;52211;50.154;8.682;2023-12-14T14:16:52;11.50;74.90
65568;DHT22;52211;50.154;8.682;2023-12-14T14:19:19;11.40;74.90
65568;DHT22;52211;50.154;8.682;2023-12-14T14:21:48;11.40;75.00
65568;DHT22;52211;50.154;8.682;2023-12-14T14:24:18;11.40;74.90
65568;DHT22;52211;50.154;8.682;2023-12-14T14:26:47;11.30;74.90
65568;DHT22;52211;50.154;8.682;2023-12-14T14:29:19;11.30;74.90
65568;DHT22;52211;50.154;8.682;2023-12-14T14:31:48;11.30;74.90
65568;DHT22;52211;50.154;8.682;2023-12-14T14:34:17;11.30;74.80
65568;DHT22;52211;50.154;8.682;2023-12-14T14:36:50;11.30;74.70
65568;DHT22;52211;50.154;8.682;2023-12-14T14:39:17;11.20;74.60
65568;DHT22;52211;50.154;8.682;2023-12-14T14:41:45;11.20;74.50
65568;DHT22;52211;50.154;8.682;2023-12-14T14:44:14;11.20;74.50
65568;DHT22;52211;50.154;8.682;2023-12-14T14:46:43;11.20;74.30
65568;DHT22;52211;50.154;8.682;2023-12-14T14:49:12;11.10;74.40
65568;DHT22;52211;50.154;8.682;2023-12-14T14:51:44;11.10;74.40
65568;DHT22;52211;50.154;8.682;2023-12-14T14:54:11;11.00;74.30
65568;DHT22;52211;50.154;8.682;2023-12-14T14:56:40;11.00;74.30
65568;DHT22;52211;50.154;8.682;2023-12-14T14:59:10;10.90;74.30
65568;DHT22;52211;50.154;8.682;2023-12-14T15:01:44;11.00;74.40
65568;DHT22;52211;50.154;8.682;2023-12-14T15:04:17;10.90;74.30
65568;DHT22;52211;50.154;8.682;2023-12-14T15:06:45;10.90;74.40
65568;DHT22;52211;50.154;8.682;2023-12-14T15:09:14;10.80;74.50
65568;DHT22;52211;50.154;8.682;2023-12-14T15:11:41;10.90;74.50
65568;DHT22;52211;50.154;8.682;2023-12-14T15:14:10;10.80;74.40
65568;DHT22;52211;50.154;8.682;2023-12-14T15:16:37;10.80;74.30
65568;DHT22;52211;50.154;8.682;2023-12-14T15:19:07;10.80;74.40
65568;DHT22;52211;50.154;8.682;2023-12-14T15:21:40;10.70;74.40
65568;DHT22;52211;50.154;8.682;2023-12-14T15:24:09;10.70;74.40
65568;DHT22;52211;50.154;8.682;2023-12-14T15:26:40;10.70;74.50
65568;DHT22;52211;50.154;8.682;2023-12-14T15:29:12;10.70;74.50
65568;DHT22;52211;50.154;8.682;2023-12-14T15:31:39;10.70;74.40
65568;DHT22;52211;50.154;8.682;2023-12-14T15:34:08;10.60;74.40
65568;DHT22;52211;50.154;8.682;2023-12-14T15:36:36;10.70;74.50
65568;DHT22;52211;50.154;8.682;2023-12-14T15:39:09;10.60;74.40
65568;DHT22;52211;50.154;8.682;2023-12-14T15:41:36;10.60;74.40
65568;DHT22;52211;50.154;8.682;2023-12-14T15:44:06;10.60;74.30
65568;DHT22;52211;50.154;8.682;2023-12-14T15:46:35;10.60;74.20
65568;DHT22;52211;50.154;8.682;2023-12-14T15:49:04;10.60;74.20
65568;DHT22;52211;50.154;8.682;2023-12-14T15:51:41;10.50;74.20
65568;DHT22;52211;50.154;8.682;2023-12-14T15:54:10;10.50;74.30
65568;DHT22;52211;50.154;8.682;2023-12-14T15:56:37;10.50;74.40
65568;DHT22;52211;50.154;8.682;2023-12-14T15:59:08;10.40;74.40
65568;DHT22;52211;50.154;8.682;2023-12-14T16:01:35;10.40;74.40
65568;DHT22;52211;50.154;8.682;2023-12-14T16:04:06;10.40;74.50
65568;DHT22;52211;50.154;8.682;2023-12-14T16:06:36;10.30;74.50
65568;DHT22;52211;50.154;8.682;2023-12-14T16:09:06;10.30;74.50
65568;DHT22;52211;50.154;8.682;2023-12-14T16:11:37;10.30;74.50
65568;DHT22;52211;50.154;8.682;2023-12-14T16:14:05;10.20;74.50
65568;DHT22;52211;50.154;8.682;2023-12-14T16:16:34;10.20;74.50
65568;DHT22;52211;50.154;8.682;2023-12-14T16:19:03;10.20;74.60
65568;DHT22;52211;50.154;8.682;2023-12-14T16:21:30;10.20;74.50
65568;DHT22;52211;50.154;8.682;2023-12-14T16:24:00;10.20;74.60
65568;DHT22;52211;50.154;8.682;2023-12-14T16:26:32;10.10;74.60
65568;DHT22;52211;50.154;8.682;2023-12-14T16:29:05;10.10;74.50
65568;DHT22;52211;50.154;8.682;2023-12-14T16:31:40;10.10;74.50
65568;DHT22;52211;50.154;8.682;2023-12-14T16:34:14;10.00;74.20
65568;DHT22;52211;50.154;8.682;2023-12-14T16:36:47;10.00;74.40
65568;DHT22;52211;50.154;8.682;2023-12-14T16:39:17;10.00;74.20
65568;DHT22;52211;50.154;8.682;2023-12-14T16:41:48;10.00;74.40
65568;DHT22;52211;50.154;8.682;2023-12-14T16:44:17;10.00;74.40
65568;DHT22;52211;50.154;8.682;2023-12-14T16:46:47;9.90;74.40
65568;DHT22;52211;50.154;8.682;2023-12-14T16:49:14;9.90;74.50
65568;DHT22;52211;50.154;8.682;2023-12-14T16:51:41;9.90;74.30
65568;DHT22;52211;50.154;8.682;2023-12-14T16:54:08;9.90;74.30
65568;DHT22;52211;50.154;8.682;2023-12-14T16:56:35;9.80;74.30
65568;DHT22;52211;50.154;8.682;2023-12-14T16:59:09;9.80;74.40
65568;DHT22;52211;50.154;8.682;2023-12-14T17:01:42;9.80;74.40
65568;DHT22;52211;50.154;8.682;2023-12-14T17:04:12;9.80;74.40
65568;DHT22;52211;50.154;8.682;2023-12-14T17:06:41;9.70;74.30
65568;DHT22;52211;50.154;8.682;2023-12-14T17:09:09;9.70;74.30
65568;DHT22;52211;50.154;8.682;2023-12-14T17:11:36;9.70;74.40
65568;DHT22;52211;50.154;8.682;2023-12-14T17:14:03;9.70;74.40
65568;DHT22;52211;50.154;8.682;2023-12-14T17:16:32;9.70;74.40
65568;DHT22;52211;50.154;8.682;2023-12-14T17:19:04;9.70;74.40
65568;DHT22;52211;50.154;8.682;2023-12-14T17:21:31;9.70;74.30
65568;DHT22;52211;50.154;8.682;2023-12-14T17:23:58;9.70;74.40
65568;DHT22;52211;50.154;8.682;2023-12-14T17:26:25;9.70;74.40
65568;DHT22;52211;50.154;8.682;2023-12-14T17:28:55;9.70;74.30
65568;DHT22;52211;50.154;8.682;2023-12-14T17:31:25;9.70;74.20
65568;DHT22;52211;50.154;8.682;2023-12-14T17:33:52;9.70;74.20
65568;DHT22;52211;50.154;8.682;2023-12-14T17:36:21;9.60;74.20
65568;DHT22;52211;50.154;8.682;2023-12-14T17:38:48;9.60;74.30
65568;DHT22;52211;50.154;8.682;2023-12-14T17:41:22;9.60;74.30
65568;DHT22;52211;50.154;8.682;2023-12-14T17:43:49;9.60;74.30
65568;DHT22;52211;50.154;8.682;2023-12-14T17:46:19;9.60;74.30
65568;DHT22;52211;50.154;8.682;2023-12-14T17:48:49;9.60;74.20
65568;DHT22;52211;50.154;8.682;2023-12-14T17:51:16;9.60;74.20
65568;DHT22;52211;50.154;8.682;2023-12-14T17:53:43;9.60;74.10
65568;DHT22;52211;50.154;8.682;2023-12-14T17:56:12;9.60;74.10
65568;DHT22;52211;50.154;8.682;2023-12-14T17:58:42;9.60;74.00
65568;DHT22;52211;50.154;8.682;2023-12-14T18:01:16;9.60;74.00
65568;DHT22;52211;50.154;8.682;2023-12-14T18:03:48;9.60;74.00
65568;DHT22;52211;50.154;8.682;2023-12-14T18:06:15;9.60;73.90
65568;DHT22;52211;50.154;8.682;2023-12-14T18:08:45;9.60;73.90
65568;DHT22;52211;50.154;8.682;2023-12-14T18:11:16;9.50;73.70
65568;DHT22;52211;50.154;8.682;2023-12-14T18:13:43;9.50;73.80
65568;DHT22;52211;50.154;8.682;2023-12-14T18:16:15;9.50;73.90
65568;DHT22;52211;50.154;8.682;2023-12-14T18:18:44;9.50;73.90
65568;DHT22;52211;50.154;8.682;2023-12-14T18:21:11;9.50;74.00
65568;DHT22;52211;50.154;8.682;2023-12-14T18:23:41;9.40;73.90
65568;DHT22;52211;50.154;8.682;2023-12-14T18:26:10;9.40;73.90
65568;DHT22;52211;50.154;8.682;2023-12-14T18:28:39;9.40;73.90
65568;DHT22;52211;50.154;8.682;2023-12-14T18:31:12;9.50;74.00
65568;DHT22;52211;50.154;8.682;2023-12-14T18:33:43;9.40;73.80
65568;DHT22;52211;50.154;8.682;2023-12-14T18:36:13;9.40;73.70
65568;DHT22;52211;50.154;8.682;2023-12-14T18:38:39;9.40;73.70
65568;DHT22;52211;50.154;8.682;2023-12-14T18:41:06;9.40;73.70
65568;DHT22;52211;50.154;8.682;2023-12-14T18:43:33;9.40;73.70
65568;DHT22;52211;50.154;8.682;2023-12-14T18:46:06;9.30;73.60
65568;DHT22;52211;50.154;8.682;2023-12-14T18:48:40;9.30;73.70
65568;DHT22;52211;50.154;8.682;2023-12-14T18:51:07;9.30;73.60
65568;DHT22;52211;50.154;8.682;2023-12-14T18:53:37;9.30;73.60
65568;DHT22;52211;50.154;8.682;2023-12-14T18:56:04;9.20;73.50
65568;DHT22;52211;50.154;8.682;2023-12-14T18:58:38;9.20;73.60
65568;DHT22;52211;50.154;8.682;2023-12-14T19:01:11;9.20;73.60
65568;DHT22;52211;50.154;8.682;2023-12-14T19:03:38;9.20;73.70
65568;DHT22;52211;50.154;8.682;2023-12-14T19:06:07;9.20;73.80
65568;DHT22;52211;50.154;8.682;2023-12-14T19:08:38;9.20;73.80
65568;DHT22;52211;50.154;8.682;2023-12-14T19:11:17;9.10;73.80
65568;DHT22;52211;50.154;8.682;2023-12-14T19:13:48;9.20;73.80
65568;DHT22;52211;50.154;8.682;2023-12-14T19:16:24;9.10;73.80
65568;DHT22;52211;50.154;8.682;2023-12-14T19:19:00;9.10;73.80
65568;DHT22;52211;50.154;8.682;2023-12-14T19:21:29;9.10;73.90
65568;DHT22;52211;50.154;8.682;2023-12-14T19:23:59;9.10;73.90
65568;DHT22;52211;50.154;8.682;2023-12-14T19:26:28;9.10;73.90
65568;DHT22;52211;50.154;8.682;2023-12-14T19:28:58;9.10;73.90
65568;DHT22;52211;50.154;8.682;2023-12-14T19:31:25;9.10;73.90
65568;DHT22;52211;50.154;8.682;2023-12-14T19:33:53;9.10;73.90
65568;DHT22;52211;50.154;8.682;2023-12-14T19:36:20;9.10;74.00
65568;DHT22;52211;50.154;8.682;2023-12-14T19:38:48;9.10;73.90
65568;DHT22;52211;50.154;8.682;2023-12-14T19:41:24;9.10;73.90
65568;DHT22;52211;50.154;8.682;2023-12-14T19:43:54;9.10;73.90
65568;DHT22;52211;50.154;8.682;2023-12-14T19:46:29;9.00;73.90
65568;DHT22;52211;50.154;8.682;2023-12-14T19:49:01;9.10;73.90
65568;DHT22;52211;50.154;8.682;2023-12-14T19:51:28;9.00;73.90
65568;DHT22;52211;50.154;8.682;2023-12-14T19:53:58;9.00;74.00
65568;DHT22;52211;50.154;8.682;2023-12-14T19:56:30;9.00;74.60
65568;DHT22;52211;50.154;8.682;2023-12-14T19:58:59;9.00;74.00
65568;DHT22;52211;50.154;8.682;2023-12-14T20:01:32;9.00;74.00
65568;DHT22;52211;50.154;8.682;2023-12-14T20:04:02;9.00;74.10
